Time;durP1;ratioP1;P1;durP2;ratioP2;P2;SDS_P1;SDS_P2;PMS_P1;PMS_P2;Temp;Humidity;BMP_temperature;BMP_pressure;BME280_temperature;BME280_humidity;BME280_pressure;Samples;Min_cycle;Max_cycle;Signal;HPM_P1;HPM_P2
2021/10/30 00:01:33;;;;;;;198.40;142.10;;;;;;;2.22;91.60;99180.19;112494;1193;61035;-78
2021/10/30 00:03:59;;;;;;;209.40;150.60;;;;;;;2.22;91.84;99181.25;112505;1192;61058;-80
2021/10/30 00:06:26;;;;;;;197.60;145.50;;;;;;;2.24;92.09;99178.23;112475;1193;61011;-79
2021/10/30 00:08:52;;;;;;;199.00;144.70;;;;;;;2.25;92.23;99175.56;112537;1192;61030;-80
2021/10/30 00:11:19;;;;;;;201.90;147.10;;;;;;;2.27;92.20;99175.33;112522;1193;61101;-79
2021/10/30 00:13:45;;;;;;;199.50;146.10;;;;;;;2.26;92.13;99168.50;112526;1192;61042;-80
2021/10/30 00:16:14;;;;;;;189.80;143.00;;;;;;;2.26;92.03;99167.11;112512;1193;61071;-78
2021/10/30 00:18:40;;;;;;;199.40;145.40;;;;;;;2.23;92.01;99168.61;112519;1193;61035;-79
2021/10/30 00:21:07;;;;;;;203.20;148.20;;;;;;;2.18;92.07;99166.27;112548;1192;61228;-78
2021/10/30 00:23:33;;;;;;;202.90;144.80;;;;;;;2.15;92.10;99169.55;112490;1192;61033;-79
2021/10/30 00:26:00;;;;;;;203.10;149.20;;;;;;;2.14;92.15;99174.84;112476;1192;61020;-79
2021/10/30 00:28:26;;;;;;;201.50;144.60;;;;;;;2.13;92.39;99169.23;112491;1193;61029;-78
2021/10/30 00:30:53;;;;;;;217.40;150.80;;;;;;;2.13;92.63;99170.80;112455;1193;61003;-78
2021/10/30 00:33:19;;;;;;;208.30;156.10;;;;;;;2.12;92.62;99172.95;112494;1177;61081;-79
2021/10/30 00:35:46;;;;;;;206.70;157.20;;;;;;;2.11;92.75;99175.80;112534;1192;61055;-79
2021/10/30 00:38:12;;;;;;;203.90;146.80;;;;;;;2.11;92.93;99178.77;112492;1193;61030;-79
2021/10/30 00:40:39;;;;;;;193.40;140.80;;;;;;;2.14;93.16;99174.80;112470;1193;62547;-79
2021/10/30 00:43:05;;;;;;;194.80;141.00;;;;;;;2.16;93.24;99173.34;112479;1192;61004;-80
2021/10/30 00:45:32;;;;;;;183.30;135.30;;;;;;;2.19;93.38;99166.60;112472;1192;61027;-78
2021/10/30 00:47:59;;;;;;;192.70;137.70;;;;;;;2.21;93.33;99163.38;112503;1193;65907;-79
2021/10/30 00:50:25;;;;;;;185.10;133.90;;;;;;;2.20;92.97;99164.11;112486;1192;61196;-79
2021/10/30 00:52:54;;;;;;;184.70;136.00;;;;;;;2.18;92.82;99162.62;112521;1193;62466;-78
2021/10/30 00:55:25;;;;;;;178.60;130.80;;;;;;;2.14;92.70;99156.75;112539;1193;61014;-79
2021/10/30 00:57:55;;;;;;;181.90;131.30;;;;;;;2.12;92.79;99154.54;112542;1192;61039;-78
2021/10/30 01:00:22;;;;;;;182.30;134.70;;;;;;;2.09;92.70;99148.15;112537;1177;66728;-79
2021/10/30 01:02:49;;;;;;;179.50;134.40;;;;;;;2.04;92.67;99148.83;112161;1193;60994;-79
2021/10/30 01:05:16;;;;;;;186.90;133.80;;;;;;;1.98;92.79;99147.60;112464;1192;65114;-79
2021/10/30 01:07:42;;;;;;;175.60;126.10;;;;;;;1.98;93.12;99149.38;112460;1193;61199;-81
2021/10/30 01:10:09;;;;;;;176.90;128.50;;;;;;;1.99;93.31;99145.11;112537;1193;61058;-79
2021/10/30 01:12:36;;;;;;;170.10;128.20;;;;;;;2.01;93.31;99139.98;112531;1193;73254;-79
2021/10/30 01:15:05;;;;;;;164.00;126.90;;;;;;;2.05;93.35;99136.72;112301;1191;61026;-79
2021/10/30 01:17:33;;;;;;;169.80;123.70;;;;;;;2.05;93.22;99138.29;112229;1193;73672;-79
2021/10/30 01:19:59;;;;;;;157.60;118.00;;;;;;;2.05;93.21;99139.69;112216;1184;61238;-78
2021/10/30 01:22:26;;;;;;;159.70;115.80;;;;;;;2.04;93.23;99138.32;112526;1193;61122;-79
2021/10/30 01:24:53;;;;;;;161.60;117.30;;;;;;;2.03;93.38;99131.68;112477;1192;64693;-79
2021/10/30 01:27:21;;;;;;;153.60;114.60;;;;;;;2.03;93.42;99124.67;112481;1192;61069;-79
2021/10/30 01:29:49;;;;;;;150.90;112.40;;;;;;;2.02;93.41;99118.03;112576;1192;64717;-80
2021/10/30 01:32:18;;;;;;;150.80;109.10;;;;;;;2.02;93.46;99114.90;112512;1192;61084;-79
2021/10/30 01:34:45;;;;;;;143.90;104.40;;;;;;;2.02;93.64;99117.52;112509;1192;60943;-79
2021/10/30 01:37:13;;;;;;;138.60;105.50;;;;;;;2.03;93.67;99118.39;112244;1193;65747;-81
2021/10/30 01:39:41;;;;;;;144.10;104.50;;;;;;;2.02;93.56;99116.64;112539;1193;61017;-78
2021/10/30 01:42:07;;;;;;;137.20;102.00;;;;;;;2.00;93.46;99116.54;112512;1192;62788;-80
2021/10/30 01:44:34;;;;;;;144.90;102.90;;;;;;;1.95;93.27;99115.99;112611;1191;61050;-80
2021/10/30 01:47:01;;;;;;;140.70;99.20;;;;;;;1.90;93.39;99112.45;112268;1193;61004;-79
2021/10/30 01:49:29;;;;;;;154.60;112.20;;;;;;;1.85;93.49;99111.73;112232;1193;65941;-78
2021/10/30 01:51:56;;;;;;;146.30;107.00;;;;;;;1.82;93.71;99114.08;112160;1193;61017;-78
2021/10/30 01:54:23;;;;;;;147.40;109.90;;;;;;;1.84;93.96;99109.30;112554;1193;63758;-79
2021/10/30 01:56:50;;;;;;;152.20;112.00;;;;;;;1.87;94.09;99101.87;112541;1192;61011;-79
2021/10/30 01:59:17;;;;;;;157.80;114.10;;;;;;;1.89;94.21;99103.05;112470;1193;60994;-79
2021/10/30 02:01:44;;;;;;;155.00;115.50;;;;;;;1.91;94.24;99101.20;112226;1193;65689;-79
2021/10/30 02:04:10;;;;;;;141.60;107.90;;;;;;;1.91;94.09;99099.63;112452;1192;61049;-78
2021/10/30 02:06:37;;;;;;;152.60;111.70;;;;;;;1.93;94.28;99103.80;112206;1193;63787;-79
2021/10/30 02:09:04;;;;;;;153.60;117.00;;;;;;;1.91;94.07;99101.21;112480;1193;60994;-79
2021/10/30 02:11:31;;;;;;;149.90;108.90;;;;;;;1.87;94.02;99104.14;112498;1192;60972;-79
2021/10/30 02:13:57;;;;;;;144.80;107.20;;;;;;;1.86;94.23;99105.21;112536;1192;64712;-78
2021/10/30 02:16:24;;;;;;;141.10;105.10;;;;;;;1.84;94.21;99104.73;112529;1192;61030;-79
2021/10/30 02:18:50;;;;;;;144.70;106.80;;;;;;;1.86;94.28;99106.10;112438;1192;64693;-81
2021/10/30 02:21:17;;;;;;;154.10;111.80;;;;;;;1.86;94.46;99109.05;112541;1192;61030;-79
2021/10/30 02:23:43;;;;;;;145.00;111.20;;;;;;;1.86;94.58;99111.16;112487;1193;60944;-79
2021/10/30 02:26:10;;;;;;;146.60;109.30;;;;;;;1.85;94.51;99111.36;112525;1192;60929;-79
2021/10/30 02:28:36;;;;;;;149.00;108.10;;;;;;;1.83;94.46;99110.73;112528;1184;61051;-79
2021/10/30 02:31:03;;;;;;;146.90;109.10;;;;;;;1.82;94.48;99104.64;112512;1192;62433;-79
2021/10/30 02:33:29;;;;;;;149.80;109.60;;;;;;;1.81;94.58;99102.73;112522;1192;60971;-79
2021/10/30 02:35:56;;;;;;;149.10;111.70;;;;;;;1.78;94.55;99102.65;112508;1192;61074;-80
2021/10/30 02:38:23;;;;;;;144.70;109.70;;;;;;;1.76;94.48;99101.48;112485;1192;64630;-79
2021/10/30 02:40:49;;;;;;;142.60;108.30;;;;;;;1.74;94.53;99099.79;112236;1192;60959;-81
2021/10/30 02:43:16;;;;;;;131.80;102.80;;;;;;;1.71;94.35;99098.82;112480;1192;64783;-80
2021/10/30 02:45:43;;;;;;;137.00;102.60;;;;;;;1.66;94.25;99096.51;112489;1193;60979;-79
2021/10/30 02:48:09;;;;;;;140.50;105.20;;;;;;;1.60;94.15;99099.33;112509;1193;61072;-78
2021/10/30 02:50:36;;;;;;;139.90;103.40;;;;;;;1.54;94.05;99091.79;112516;1192;60947;-80
2021/10/30 02:53:02;;;;;;;138.50;102.10;;;;;;;1.51;94.15;99085.40;112539;1193;61169;-80
2021/10/30 02:55:29;;;;;;;136.10;103.60;;;;;;;1.49;94.22;99085.28;112282;1193;63637;-81
2021/10/30 02:57:56;;;;;;;137.00;105.60;;;;;;;1.45;94.14;99086.63;112559;1193;61481;-80
2021/10/30 03:00:22;;;;;;;127.60;95.90;;;;;;;1.41;94.24;99087.27;112563;1192;61163;-80
2021/10/30 03:02:49;;;;;;;133.70;101.80;;;;;;;1.41;94.68;99095.84;112597;1191;61062;-80
2021/10/30 03:05:16;;;;;;;126.60;94.40;;;;;;;1.44;94.81;99094.88;112538;1193;61070;-80
2021/10/30 03:07:42;;;;;;;127.00;93.90;;;;;;;1.47;94.93;99093.91;112520;1193;64970;-80
2021/10/30 03:10:09;;;;;;;123.20;91.30;;;;;;;1.51;95.06;99098.52;112570;1192;60968;-80
2021/10/30 03:12:36;;;;;;;120.60;85.40;;;;;;;1.55;95.08;99100.52;112294;1193;61131;-80
2021/10/30 03:15:03;;;;;;;114.00;87.00;;;;;;;1.63;95.33;99101.70;112586;1192;66825;-80
2021/10/30 03:17:30;;;;;;;111.40;80.60;;;;;;;1.71;95.12;99098.64;112531;1193;60976;-79
2021/10/30 03:19:56;;;;;;;116.10;81.50;;;;;;;1.79;95.15;99096.51;112463;1193;65208;-80
2021/10/30 03:22:23;;;;;;;113.10;81.70;;;;;;;1.90;95.36;99098.44;112470;1192;61087;-79
2021/10/30 03:24:49;;;;;;;118.40;86.60;;;;;;;1.98;95.25;99103.12;112437;1193;61081;-79
2021/10/30 03:27:16;;;;;;;129.30;92.10;;;;;;;2.05;95.37;99096.93;112184;1193;61003;-79
2021/10/30 03:29:43;;;;;;;132.70;95.30;;;;;;;2.16;95.61;99095.34;112466;1193;69597;-81
2021/10/30 03:32:10;;;;;;;135.20;98.60;;;;;;;2.24;95.50;99101.08;112515;1192;63925;-79
2021/10/30 03:34:36;;;;;;;140.60;102.30;;;;;;;2.31;95.55;99098.21;112530;1192;61042;-79
2021/10/30 03:37:03;;;;;;;133.00;96.50;;;;;;;2.39;95.60;99097.27;112551;1192;61028;-79
2021/10/30 03:39:30;;;;;;;129.30;92.60;;;;;;;2.47;95.64;99089.98;112626;1193;64740;-79
2021/10/30 03:41:56;;;;;;;126.70;89.90;;;;;;;2.56;95.60;99081.45;112515;1193;60969;-79
2021/10/30 03:44:23;;;;;;;133.20;90.10;;;;;;;2.64;95.54;99077.85;112566;1193;64707;-79
2021/10/30 03:46:49;;;;;;;123.30;88.80;;;;;;;2.73;95.47;99078.96;112449;1193;60982;-79
2021/10/30 03:49:16;;;;;;;118.50;88.40;;;;;;;2.78;95.32;99078.78;112148;1193;61068;-79
2021/10/30 03:51:44;;;;;;;121.10;88.50;;;;;;;2.81;95.24;99078.34;112494;1193;61081;-79
2021/10/30 03:54:11;;;;;;;124.70;87.80;;;;;;;2.83;95.11;99081.59;112226;1193;61055;-79
2021/10/30 03:56:37;;;;;;;113.00;80.30;;;;;;;2.84;94.99;99076.13;112459;1192;64990;-79
2021/10/30 03:59:05;;;;;;;117.70;83.20;;;;;;;2.86;95.09;99076.24;112543;1192;60993;-79
2021/10/30 04:01:31;;;;;;;112.40;82.50;;;;;;;2.88;94.92;99074.80;112417;1193;61050;-81
2021/10/30 04:03:58;;;;;;;122.20;84.30;;;;;;;2.85;94.71;99072.60;112188;1193;66737;-79
2021/10/30 04:06:24;;;;;;;117.50;85.40;;;;;;;2.80;94.61;99072.42;112487;1193;61118;-82
2021/10/30 04:08:51;;;;;;;117.30;84.00;;;;;;;2.75;94.64;99071.36;112503;1193;63779;-81
2021/10/30 04:11:18;;;;;;;117.60;80.80;;;;;;;2.72;94.58;99065.65;112647;1192;61049;-79
2021/10/30 04:13:44;;;;;;;108.50;80.00;;;;;;;2.72;94.55;99066.89;112590;1191;61128;-79
2021/10/30 04:16:11;;;;;;;111.60;78.00;;;;;;;2.74;94.46;99068.23;112523;1192;61049;-79
2021/10/30 04:18:37;;;;;;;104.80;74.80;;;;;;;2.71;94.39;99066.91;112559;1193;60978;-78
2021/10/30 04:21:04;;;;;;;103.50;74.90;;;;;;;2.68;94.32;99062.30;112493;1193;64053;-79
2021/10/30 04:23:31;;;;;;;104.50;73.00;;;;;;;2.64;94.23;99061.04;112448;1193;61058;-78
2021/10/30 04:25:57;;;;;;;96.50;68.90;;;;;;;2.59;94.24;99061.02;112511;1192;60943;-80
2021/10/30 04:28:25;;;;;;;95.50;63.80;;;;;;;2.57;94.23;99057.38;112251;1192;60960;-80
2021/10/30 04:30:51;;;;;;;79.90;57.20;;;;;;;2.59;94.18;99056.27;112532;1193;61056;-79
2021/10/30 04:33:18;;;;;;;82.50;54.80;;;;;;;2.64;94.09;99055.59;112462;1184;65004;-79
2021/10/30 04:35:47;;;;;;;77.10;51.50;;;;;;;2.74;94.00;99051.05;112501;1192;61057;-79
2021/10/30 04:38:13;;;;;;;77.50;53.20;;;;;;;2.79;93.76;99051.20;112534;1192;61039;-79
2021/10/30 04:40:40;;;;;;;83.20;57.90;;;;;;;2.79;93.55;99047.36;112527;1192;66989;-79
2021/10/30 04:43:07;;;;;;;81.80;61.00;;;;;;;2.74;93.39;99047.52;112521;1193;61049;-80
2021/10/30 04:45:34;;;;;;;90.00;71.60;;;;;;;2.71;93.37;99043.94;112508;1192;62705;-79
2021/10/30 04:48:01;;;;;;;81.70;58.90;;;;;;;2.68;93.38;99046.52;112502;1192;61168;-79
2021/10/30 04:50:27;;;;;;;83.20;56.70;;;;;;;2.69;93.45;99047.55;112514;1193;61391;-79
2021/10/30 04:52:54;;;;;;;74.30;52.10;;;;;;;2.73;93.56;99041.09;112214;1193;66952;-79
2021/10/30 04:55:20;;;;;;;73.70;51.20;;;;;;;2.80;93.44;99035.19;112470;1193;67242;-79
2021/10/30 04:57:47;;;;;;;75.80;53.20;;;;;;;2.82;93.27;99037.07;112508;1192;62394;-79
2021/10/30 05:00:14;;;;;;;71.20;51.10;;;;;;;2.80;93.20;99033.12;112215;1192;61130;-79
2021/10/30 05:02:40;;;;;;;77.60;52.30;;;;;;;2.79;93.18;99032.09;112272;1192;61167;-79
2021/10/30 05:05:07;;;;;;;73.70;50.20;;;;;;;2.80;93.11;99031.36;112545;1191;65655;-80
2021/10/30 05:07:34;;;;;;;75.20;48.90;;;;;;;2.80;93.03;99033.30;112509;1192;60985;-79
2021/10/30 05:10:01;;;;;;;64.80;49.00;;;;;;;2.81;92.95;99033.42;112503;1192;64710;-79
2021/10/30 05:12:27;;;;;;;63.50;47.00;;;;;;;2.86;92.96;99030.96;112462;1192;61026;-80
2021/10/30 05:14:53;;;;;;;65.90;46.20;;;;;;;2.90;92.76;99025.23;112630;1193;61022;-79
2021/10/30 05:17:20;;;;;;;68.00;46.30;;;;;;;2.90;92.60;99021.00;112524;1192;61045;-79
2021/10/30 05:19:46;;;;;;;70.00;47.90;;;;;;;2.91;92.47;99018.16;112551;1193;61186;-79
2021/10/30 05:22:13;;;;;;;82.60;60.30;;;;;;;2.91;92.40;99014.66;112469;1192;61052;-79
2021/10/30 05:24:39;;;;;;;107.30;80.00;;;;;;;2.80;92.25;99016.09;112454;1193;61055;-78
2021/10/30 05:27:06;;;;;;;122.20;89.40;;;;;;;2.63;92.11;99016.50;112470;1192;61077;-80
2021/10/30 05:29:33;;;;;;;117.60;89.80;;;;;;;2.45;92.20;99014.46;112491;1192;61045;-79
2021/10/30 05:31:59;;;;;;;126.30;92.30;;;;;;;2.32;92.24;99016.48;112453;1193;61002;-79
2021/10/30 05:34:26;;;;;;;123.90;94.30;;;;;;;2.22;92.37;99021.56;112489;1192;60978;-81
2021/10/30 05:36:54;;;;;;;131.30;101.20;;;;;;;2.16;92.66;99025.27;112327;1192;61136;-80
2021/10/30 05:39:22;;;;;;;124.30;96.40;;;;;;;2.11;92.91;99032.41;112526;1192;60995;-80
2021/10/30 05:41:49;;;;;;;119.00;90.40;;;;;;;2.09;93.03;99036.16;112575;1192;65745;-79
2021/10/30 05:44:17;;;;;;;119.50;92.70;;;;;;;2.11;93.19;99036.47;112264;1192;61020;-79
2021/10/30 05:46:44;;;;;;;109.30;79.70;;;;;;;2.14;93.37;99034.77;112448;1192;65091;-82
2021/10/30 05:49:11;;;;;;;108.60;75.20;;;;;;;2.21;93.46;99036.33;112787;1192;61059;-80
2021/10/30 05:51:38;;;;;;;102.60;74.20;;;;;;;2.27;93.43;99031.05;112663;1193;61058;-81
2021/10/30 05:54:05;;;;;;;95.00;68.20;;;;;;;2.32;93.49;99036.65;112579;1192;66068;-81
2021/10/30 05:56:32;;;;;;;96.00;68.80;;;;;;;2.36;93.44;99036.70;112528;1192;69276;-81
2021/10/30 05:58:59;;;;;;;91.50;67.70;;;;;;;2.37;93.31;99035.61;112499;1192;63989;-82
2021/10/30 06:01:25;;;;;;;99.00;70.40;;;;;;;2.39;93.36;99033.27;112260;1192;61168;-79
2021/10/30 06:03:52;;;;;;;94.80;71.90;;;;;;;2.42;93.29;99038.44;112407;1193;61036;-79
2021/10/30 06:06:18;;;;;;;97.70;74.20;;;;;;;2.43;93.30;99041.73;112426;1193;66022;-81
2021/10/30 06:08:45;;;;;;;99.10;74.40;;;;;;;2.44;93.24;99042.40;112499;1192;61158;-80
2021/10/30 06:11:12;;;;;;;95.00;70.90;;;;;;;2.47;93.23;99043.88;112532;1192;62615;-81
2021/10/30 06:13:38;;;;;;;91.50;67.20;;;;;;;2.52;93.29;99043.89;112295;1193;61064;-80
2021/10/30 06:16:05;;;;;;;83.80;60.60;;;;;;;2.58;93.29;99048.24;112545;1192;60979;-79
2021/10/30 06:18:32;;;;;;;93.70;64.80;;;;;;;2.63;93.26;99048.78;112280;1192;66689;-79
2021/10/30 06:20:58;;;;;;;84.30;60.10;;;;;;;2.71;93.31;99047.44;112461;1192;60965;-79
2021/10/30 06:23:25;;;;;;;79.10;56.50;;;;;;;2.86;93.26;99047.11;112198;1192;61026;-77
2021/10/30 06:25:52;;;;;;;80.00;54.10;;;;;;;3.03;93.14;99045.66;112558;1192;61247;-77
2021/10/30 06:28:19;;;;;;;76.80;55.30;;;;;;;3.19;92.96;99045.41;112468;1192;61068;-77
2021/10/30 06:30:46;;;;;;;78.50;52.00;;;;;;;3.33;92.76;99047.89;112494;1192;64779;-81
2021/10/30 06:33:13;;;;;;;76.00;53.80;;;;;;;3.45;92.54;99048.32;112481;1192;61007;-80
2021/10/30 06:35:39;;;;;;;80.20;56.70;;;;;;;3.58;92.35;99051.02;112500;1193;62558;-80
2021/10/30 06:38:06;;;;;;;73.70;53.80;;;;;;;3.70;92.14;99049.33;112538;1193;61010;-80
2021/10/30 06:40:33;;;;;;;70.40;51.10;;;;;;;3.82;91.95;99049.92;112502;1192;60982;-81
2021/10/30 06:42:59;;;;;;;64.60;48.40;;;;;;;3.94;91.69;99052.98;112604;1192;65989;-81
2021/10/30 06:45:26;;;;;;;65.50;46.00;;;;;;;4.06;91.43;99049.35;112561;1192;60943;-79
2021/10/30 06:47:52;;;;;;;63.50;45.70;;;;;;;4.18;91.20;99048.52;112509;1192;63981;-79
2021/10/30 06:50:22;;;;;;;60.90;43.80;;;;;;;4.30;90.93;99052.40;112487;1191;61054;-79
2021/10/30 06:52:51;;;;;;;64.30;44.20;;;;;;;4.44;90.74;99052.03;112531;1193;60953;-79
2021/10/30 06:55:20;;;;;;;61.30;43.20;;;;;;;4.57;90.58;99053.23;112536;1192;66039;-79
2021/10/30 06:57:47;;;;;;;63.30;42.80;;;;;;;4.69;90.26;99056.26;112617;1193;61071;-79
2021/10/30 07:00:15;;;;;;;58.90;40.70;;;;;;;4.81;90.05;99061.73;112526;1192;62342;-78
2021/10/30 07:02:42;;;;;;;61.30;41.70;;;;;;;4.94;89.80;99062.58;112224;1193;61164;-79
2021/10/30 07:05:09;;;;;;;58.50;42.60;;;;;;;5.09;89.42;99059.13;112292;1192;60914;-82
2021/10/30 07:07:36;;;;;;;56.30;41.50;;;;;;;5.26;89.22;99059.65;112275;1193;65644;-83
2021/10/30 07:10:05;;;;;;;57.00;40.70;;;;;;;5.40;88.96;99060.23;112582;1193;61004;-80
2021/10/30 07:12:35;;;;;;;64.90;43.20;;;;;;;5.53;88.68;99064.58;112638;1193;63971;-80
2021/10/30 07:15:01;;;;;;;77.00;55.50;;;;;;;5.69;88.65;99067.90;112552;1192;60998;-80
2021/10/30 07:17:28;;;;;;;74.90;55.50;;;;;;;5.83;88.51;99065.52;112589;1192;61055;-79
2021/10/30 07:19:55;;;;;;;71.00;49.80;;;;;;;5.91;88.40;99064.61;112520;1193;64342;-80
2021/10/30 07:22:22;;;;;;;61.20;45.30;;;;;;;6.00;88.21;99067.77;112569;1192;61023;-79
2021/10/30 07:24:49;;;;;;;74.20;53.90;;;;;;;6.11;88.12;99065.44;112557;1193;63611;-79
2021/10/30 07:27:17;;;;;;;81.20;61.30;;;;;;;6.26;88.20;99060.00;112539;1193;62461;-79
2021/10/30 07:29:47;;;;;;;74.20;57.70;;;;;;;6.37;88.13;99065.09;112582;1192;61062;-79
2021/10/30 07:32:15;;;;;;;77.50;56.10;;;;;;;6.47;87.98;99062.81;112556;1193;64666;-79
2021/10/30 07:34:42;;;;;;;72.40;53.50;;;;;;;6.55;87.84;99062.06;112533;1184;61036;-79
2021/10/30 07:37:09;;;;;;;74.60;52.40;;;;;;;6.62;87.49;99065.80;112543;1193;72494;-78
2021/10/30 07:39:36;;;;;;;74.60;54.60;;;;;;;6.69;87.39;99063.86;112252;1192;61128;-79
2021/10/30 07:42:04;;;;;;;73.80;54.50;;;;;;;6.77;87.31;99062.21;112265;1193;61039;-79
2021/10/30 07:44:30;;;;;;;77.00;57.10;;;;;;;6.87;87.11;99063.16;112572;1192;66643;-78
2021/10/30 07:46:57;;;;;;;75.40;55.50;;;;;;;6.93;87.01;99061.42;112455;1192;60995;-78
2021/10/30 07:49:23;;;;;;;75.60;56.50;;;;;;;7.01;86.98;99065.80;112468;1193;64845;-78
2021/10/30 07:51:50;;;;;;;77.80;57.10;;;;;;;7.10;86.79;99063.39;112230;1193;61205;-79
2021/10/30 07:54:17;;;;;;;68.80;51.50;;;;;;;7.19;86.57;99060.96;112468;1193;60994;-79
2021/10/30 07:56:43;;;;;;;73.10;54.90;;;;;;;7.29;86.32;99061.17;112454;1192;66116;-79
2021/10/30 07:59:10;;;;;;;75.10;54.60;;;;;;;7.39;86.18;99059.75;112506;1193;61002;-78
2021/10/30 08:01:36;;;;;;;75.20;52.60;;;;;;;7.49;85.94;99057.08;112467;1192;60947;-79
2021/10/30 08:04:03;;;;;;;70.10;51.50;;;;;;;7.61;85.92;99056.77;112449;1192;61051;-79
2021/10/30 08:06:30;;;;;;;65.70;48.40;;;;;;;7.73;85.84;99052.96;112383;1192;60976;-79
2021/10/30 08:08:56;;;;;;;63.30;47.10;;;;;;;7.85;85.60;99054.64;112455;1193;66810;-79
2021/10/30 08:11:24;;;;;;;58.00;43.90;;;;;;;7.98;85.51;99053.56;112231;1193;61065;-79
2021/10/30 08:13:50;;;;;;;62.10;46.90;;;;;;;8.09;85.37;99048.83;112487;1192;63619;-79
2021/10/30 08:16:17;;;;;;;52.00;37.80;;;;;;;8.21;85.18;99045.52;112500;1191;61136;-79
2021/10/30 08:18:44;;;;;;;47.30;34.60;;;;;;;8.36;84.63;99046.46;112491;1193;61059;-78
2021/10/30 08:21:11;;;;;;;45.60;33.60;;;;;;;8.55;84.17;99047.72;112577;1192;66040;-79
2021/10/30 08:23:38;;;;;;;40.80;30.90;;;;;;;8.75;83.73;99045.84;112517;1193;61056;-79
2021/10/30 08:26:05;;;;;;;38.80;30.20;;;;;;;8.93;83.06;99046.37;112492;1192;62637;-79
2021/10/30 08:28:32;;;;;;;40.20;30.90;;;;;;;9.09;82.41;99041.32;112278;1192;61152;-80
2021/10/30 08:30:58;;;;;;;42.10;32.40;;;;;;;9.23;82.09;99042.77;112523;1193;60967;-79
2021/10/30 08:33:26;;;;;;;49.20;33.10;;;;;;;9.38;81.76;99041.85;112584;1193;61029;-80
2021/10/30 08:35:53;;;;;;;49.40;35.00;;;;;;;9.53;81.28;99037.96;112368;1192;61042;-80
2021/10/30 08:38:19;;;;;;;45.30;33.00;;;;;;;9.66;80.83;99037.82;112522;1192;60988;-80
2021/10/30 08:40:46;;;;;;;45.70;33.30;;;;;;;9.81;80.44;99036.73;112505;1192;60956;-80
2021/10/30 08:43:24;;;;;;;39.40;29.50;;;;;;;9.97;80.01;99032.32;112531;1192;60975;-79
2021/10/30 08:45:51;;;;;;;41.40;30.20;;;;;;;10.17;79.43;99031.98;112552;1192;66808;-81
2021/10/30 08:48:22;;;;;;;40.60;31.20;;;;;;;10.34;79.27;99027.84;112519;1192;61036;-77
2021/10/30 08:50:50;;;;;;;40.00;30.30;;;;;;;10.48;78.88;99024.46;112441;1193;63704;-79
2021/10/30 08:53:18;;;;;;;39.70;29.90;;;;;;;10.65;78.55;99022.45;112613;1192;61083;-79
2021/10/30 08:55:46;;;;;;;40.20;30.10;;;;;;;10.85;77.95;99019.46;112529;1192;61379;-81
2021/10/30 08:58:14;;;;;;;40.00;29.10;;;;;;;11.10;77.42;99018.30;112575;1192;65631;-80
2021/10/30 09:00:44;;;;;;;36.10;28.30;;;;;;;11.32;76.71;99018.02;112587;1192;60949;-80
2021/10/30 09:03:12;;;;;;;34.80;26.60;;;;;;;11.52;75.73;99013.59;112561;1192;65019;-82
2021/10/30 09:05:41;;;;;;;42.10;30.70;;;;;;;11.75;75.56;99008.79;112586;1193;61036;-82
2021/10/30 09:08:08;;;;;;;40.20;32.10;;;;;;;11.95;74.88;99005.63;112330;1192;61017;-80
2021/10/30 09:10:38;;;;;;;40.80;31.90;;;;;;;12.14;75.19;99013.47;112287;1192;65773;-79
2021/10/30 09:13:11;;;;;;;44.60;33.90;;;;;;;12.28;74.77;99006.39;112611;1192;61062;-79
2021/10/30 09:15:47;;;;;;;39.90;30.30;;;;;;;12.37;74.67;99007.55;112563;1193;63805;-79
2021/10/30 09:18:36;;;;;;;40.10;29.10;;;;;;;12.48;74.14;99004.73;112590;1192;60960;-79
2021/10/30 09:21:14;;;;;;;37.90;26.90;;;;;;;12.64;74.03;99006.41;112339;1192;61094;-79
2021/10/30 09:23:46;;;;;;;30.00;22.20;;;;;;;12.78;73.45;98999.98;112554;1193;65687;-79
2021/10/30 09:26:30;;;;;;;35.30;24.40;;;;;;;12.93;73.41;99004.71;112489;1193;60949;-79
2021/10/30 09:29:07;;;;;;;12.10;8.70;;;;;;;13.09;72.70;98997.58;112289;1192;63810;-80
2021/10/30 09:31:34;;;;;;;6.80;6.10;;;;;;;13.30;71.82;98993.48;112518;1191;61040;-79
2021/10/30 09:34:03;;;;;;;21.70;15.60;;;;;;;13.56;71.58;98987.52;112496;1191;61052;-80
2021/10/30 09:36:37;;;;;;;22.20;18.70;;;;;;;13.76;71.36;98985.97;112590;1192;67537;-80
2021/10/30 09:39:12;;;;;;;25.30;17.70;;;;;;;13.90;71.15;98982.35;112616;1192;61049;-80
2021/10/30 09:41:42;;;;;;;22.70;16.20;;;;;;;14.03;70.89;98980.03;112651;1193;63693;-80
2021/10/30 09:44:22;;;;;;;;;;;;;;;14.12;70.27;98972.28;112623;1192;61107;-80
2021/10/30 09:46:52;;;;;;;12.60;10.70;;;;;;;14.25;69.87;98973.23;112585;1192;60947;-79
2021/10/30 09:49:20;;;;;;;;;;;;;;;14.41;68.96;98971.73;112639;1193;66092;-80
2021/10/30 09:51:53;;;;;;;14.00;10.00;;;;;;;14.58;68.25;98972.44;112237;1192;60991;-79
2021/10/30 09:54:31;;;;;;;16.60;12.20;;;;;;;14.73;67.98;98978.36;112504;1193;62492;-77
2021/10/30 09:56:58;;;;;;;8.40;5.10;;;;;;;14.83;66.68;98970.89;112559;1193;61084;-78
2021/10/30 09:59:27;;;;;;;5.90;4.70;;;;;;;15.01;66.14;98972.25;112546;1193;61055;-78
2021/10/30 10:01:53;;;;;;;5.90;4.60;;;;;;;15.17;65.63;98965.52;112527;1192;73611;-78
2021/10/30 10:04:21;;;;;;;5.90;4.50;;;;;;;15.29;64.74;98969.27;112305;1192;61244;-78
2021/10/30 10:06:49;;;;;;;5.50;4.50;;;;;;;15.42;64.10;98973.15;112277;1192;62815;-79
2021/10/30 10:09:17;;;;;;;6.40;4.60;;;;;;;15.55;63.00;98968.27;112507;1193;61028;-79
2021/10/30 10:11:45;;;;;;;7.30;5.10;;;;;;;15.70;62.29;98966.27;112588;1191;61033;-78
2021/10/30 10:14:14;;;;;;;6.00;4.80;;;;;;;15.82;62.37;98967.56;112530;1193;64351;-80
2021/10/30 10:16:44;;;;;;;5.20;4.80;;;;;;;15.91;61.82;98964.26;112361;1192;61042;-81
2021/10/30 10:19:11;;;;;;;4.70;4.30;;;;;;;15.98;60.93;98960.52;112320;1192;64500;-77
2021/10/30 10:21:39;;;;;;;6.60;4.40;;;;;;;16.06;60.05;98954.13;112570;1192;61064;-81
2021/10/30 10:24:12;;;;;;;6.50;4.90;;;;;;;16.13;60.04;98957.60;112629;1193;61023;-79
2021/10/30 10:26:44;;;;;;;6.00;4.60;;;;;;;16.21;59.32;98952.88;112579;1193;66040;-82
2021/10/30 10:29:28;;;;;;;5.60;4.40;;;;;;;16.29;58.62;98951.14;112534;1192;61052;-83
2021/10/30 10:31:55;;;;;;;8.20;4.70;;;;;;;16.36;58.65;98942.17;112565;1193;64789;-79
2021/10/30 10:34:24;;;;;;;4.80;4.30;;;;;;;16.45;58.31;98936.73;112555;1178;60982;-77
2021/10/30 10:37:12;;;;;;;7.00;4.70;;;;;;;16.52;57.78;98934.64;112483;1193;61035;-77
2021/10/30 10:40:03;;;;;;;4.80;4.40;;;;;;;16.61;57.24;98926.11;112571;1192;65691;-78
2021/10/30 10:42:35;;;;;;;7.50;4.60;;;;;;;16.69;56.79;98917.47;112571;1191;60949;-78
2021/10/30 10:45:05;;;;;;;8.00;4.70;;;;;;;16.75;56.47;98918.85;112555;1192;63788;-77
2021/10/30 10:47:34;;;;;;;5.30;4.80;;;;;;;16.81;56.57;98917.79;112530;1192;61039;-78
2021/10/30 10:50:20;;;;;;;7.10;4.80;;;;;;;16.88;56.36;98918.38;112520;1192;61442;-79
2021/10/30 10:52:59;;;;;;;5.30;4.70;;;;;;;16.96;55.94;98916.77;112584;1192;64519;-78
2021/10/30 10:55:27;;;;;;;5.20;4.70;;;;;;;17.04;55.34;98919.23;112531;1192;61059;-79
2021/10/30 10:58:02;;;;;;;6.60;4.80;;;;;;;17.10;54.76;98920.77;112554;1192;63626;-78
2021/10/30 11:00:31;;;;;;;6.60;4.80;;;;;;;17.16;54.90;98920.06;112601;1192;61131;-79
2021/10/30 11:02:59;;;;;;;7.40;6.60;;;;;;;17.22;54.74;98921.48;112498;1192;61023;-78
2021/10/30 11:05:34;;;;;;;17.20;14.30;;;;;;;17.28;54.57;98923.93;112536;1193;64652;-76
2021/10/30 11:08:26;;;;;;;10.20;7.50;;;;;;;17.32;54.23;98921.91;112346;1192;62137;-78
2021/10/30 11:11:11;;;;;;;14.80;10.00;;;;;;;17.36;53.74;98921.02;112539;1192;62351;-77
2021/10/30 11:13:57;;;;;;;6.60;5.50;;;;;;;17.39;53.47;98921.11;112473;1193;61031;-77
2021/10/30 11:16:30;;;;;;;5.20;4.20;;;;;;;17.39;53.62;98919.27;112535;1192;61058;-80